createdAt,value
2017-04-15T00:00:44.610Z,91.4
2017-04-15T00:01:46.822Z,90.9
2017-04-15T00:02:48.626Z,91
2017-04-15T00:03:50.440Z,91.4
2017-04-15T00:04:52.261Z,91.6
2017-04-15T00:05:54.083Z,91.4
2017-04-15T00:06:55.880Z,91.2
2017-04-15T00:07:57.697Z,92.9
2017-04-15T00:08:59.851Z,92.2
2017-04-15T00:10:02.036Z,91.5
2017-04-15T00:11:03.849Z,90.4
2017-04-15T00:12:05.657Z,91.4
2017-04-15T00:13:07.465Z,91.6
2017-04-15T00:14:09.438Z,91.8
2017-04-15T00:15:11.733Z,90.8
2017-04-15T00:16:13.544Z,90.6
2017-04-15T00:17:15.363Z,89.6
2017-04-15T00:18:17.520Z,89.3
2017-04-15T00:19:19.680Z,89.7
2017-04-15T00:20:21.500Z,90.8
2017-04-15T00:21:23.312Z,89.7
2017-04-15T00:22:25.134Z,90.1
2017-04-15T00:23:26.941Z,91.4
2017-04-15T00:24:28.818Z,92.1
2017-04-15T00:25:30.633Z,91
2017-04-15T00:26:32.437Z,89.6
2017-04-15T00:27:34.407Z,90.6
2017-04-15T00:28:36.226Z,90.4
2017-04-15T00:29:38.046Z,89.9
2017-04-15T00:30:39.853Z,90.5
2017-04-15T00:31:41.677Z,90.3
2017-04-15T00:32:43.488Z,91.2
2017-04-15T00:33:45.300Z,90.4
2017-04-15T00:34:47.118Z,90.1
2017-04-15T00:35:48.955Z,90.6
2017-04-15T00:36:50.792Z,90.7
2017-04-15T00:37:52.611Z,90.4
2017-04-15T00:38:54.475Z,89.8
2017-04-15T00:39:56.278Z,89.3
2017-04-15T00:40:58.251Z,89.7
2017-04-15T00:42:00.099Z,89.6
2017-04-15T00:43:02.250Z,89.8
2017-04-15T00:44:04.066Z,90.6
2017-04-15T00:45:05.872Z,91.2
2017-04-15T00:46:08.040Z,90.8
2017-04-15T00:47:09.863Z,91.7
2017-04-15T00:48:11.664Z,91
2017-04-15T00:49:13.862Z,90.8
2017-04-15T00:50:15.667Z,91.1
2017-04-15T00:51:17.496Z,92
2017-04-15T00:53:22.494Z,92.8
2017-04-15T00:54:24.307Z,92
2017-04-15T00:55:26.105Z,91.4
2017-04-15T00:56:27.932Z,91.1
2017-04-15T00:57:30.065Z,91.9
2017-04-15T00:58:32.221Z,91.4
2017-04-15T00:59:34.391Z,90.7
2017-04-15T01:00:36.207Z,91.7
2017-04-15T01:01:38.016Z,91.8
2017-04-15T01:02:40.179Z,92.1
2017-04-15T01:03:42.691Z,91.9
2017-04-15T01:04:44.842Z,92.3
2017-04-15T01:05:46.664Z,91.7
2017-04-15T01:06:48.891Z,91.6
2017-04-15T01:07:51.037Z,91.6
2017-04-15T01:08:52.869Z,92
2017-04-15T01:09:54.677Z,90.9
2017-04-15T01:10:56.487Z,91.8
2017-04-15T01:11:58.290Z,92.8
2017-04-15T01:13:00.446Z,92.2
2017-04-15T01:14:02.590Z,92
2017-04-15T01:15:04.400Z,91.6
2017-04-15T01:16:06.563Z,92
2017-04-15T01:17:08.404Z,92.9
2017-04-15T01:18:10.237Z,93.2
2017-04-15T01:19:12.733Z,93.9
2017-04-15T01:20:14.558Z,93.9
2017-04-15T01:21:16.360Z,92.6
2017-04-15T01:22:18.517Z,91.6
2017-04-15T01:23:20.341Z,90.7
2017-04-15T01:24:22.151Z,90.5
2017-04-15T01:25:24.303Z,92.5
2017-04-15T01:26:26.126Z,91.9
2017-04-15T01:27:27.941Z,90.9
2017-04-15T01:28:29.750Z,91.8
2017-04-15T01:29:31.553Z,92
2017-04-15T01:30:33.367Z,91.8
2017-04-15T01:31:35.177Z,91.8
2017-04-15T01:32:37.329Z,92.4
2017-04-15T01:33:39.478Z,92.5
2017-04-15T01:34:41.292Z,92.7
2017-04-15T01:35:43.103Z,91.6
2017-04-15T01:36:44.910Z,91.9
2017-04-15T01:37:46.720Z,92.6
2017-04-15T01:38:48.865Z,92.2
2017-04-15T01:39:50.682Z,90.5
2017-04-15T01:40:52.842Z,90.2
2017-04-15T01:41:54.650Z,93.5
2017-04-15T01:42:56.465Z,93.7
2017-04-15T01:43:58.280Z,91.7
2017-04-15T01:45:00.108Z,90.7
2017-04-15T01:46:01.906Z,90.4
2017-04-15T01:47:03.734Z,92.2
2017-04-15T01:48:05.541Z,92.6
2017-04-15T01:49:07.369Z,92.5
2017-04-15T01:50:09.172Z,92.3
2017-04-15T01:51:10.988Z,91.4
2017-04-15T01:52:13.132Z,91.2
2017-04-15T01:53:14.948Z,90.8
2017-04-15T01:54:16.780Z,90.3
2017-04-15T01:55:18.619Z,90
2017-04-15T01:56:20.444Z,91.9
2017-04-15T01:57:22.257Z,91.4
2017-04-15T01:58:24.399Z,90.3
2017-04-15T01:59:26.564Z,90.9
2017-04-15T02:00:28.374Z,90.5
2017-04-15T02:01:30.196Z,90.2
2017-04-15T02:02:31.993Z,90.7
2017-04-15T02:03:33.821Z,90.9
2017-04-15T02:04:35.644Z,91.2
2017-04-15T02:05:37.785Z,91.2
2017-04-15T02:06:39.592Z,90.9
2017-04-15T02:07:41.740Z,91.8
2017-04-15T02:08:43.887Z,91.8
2017-04-15T02:09:45.783Z,92.8
2017-04-15T02:10:48.392Z,92.7
2017-04-15T02:11:50.199Z,91.4
2017-04-15T02:12:52.683Z,90.6
2017-04-15T02:13:54.510Z,90.3
2017-04-15T02:14:56.314Z,91.2
2017-04-15T02:15:58.129Z,91.2
2017-04-15T02:16:59.945Z,91.5
2017-04-15T02:18:01.752Z,91.4
2017-04-15T02:19:03.583Z,91.1
2017-04-15T02:20:05.393Z,91.4
2017-04-15T02:21:07.198Z,92.2
2017-04-15T02:22:09.025Z,92.8
2017-04-15T02:23:10.849Z,94.3
2017-04-15T02:24:13.080Z,93.7
2017-04-15T02:25:14.892Z,92.5
2017-04-15T02:26:16.721Z,91.9
2017-04-15T02:27:18.527Z,91.2
2017-04-15T02:28:20.671Z,93.2
2017-04-15T02:29:22.814Z,92.3
2017-04-15T02:30:24.968Z,93.6
2017-04-15T02:31:26.789Z,94
2017-04-15T02:32:28.605Z,94.6
2017-04-15T02:33:30.430Z,92.8
2017-04-15T02:34:32.240Z,92.6
2017-04-15T02:35:34.200Z,92.3
2017-04-15T02:36:36.236Z,92.6
2017-04-15T02:37:38.046Z,92.2
2017-04-15T02:38:39.862Z,92.7
2017-04-15T02:39:41.671Z,92.5
2017-04-15T02:40:43.499Z,91.4
2017-04-15T02:41:45.644Z,91.1
2017-04-15T02:42:47.463Z,92.3
2017-04-15T02:43:49.273Z,91.9
2017-04-15T02:44:51.423Z,91.4
2017-04-15T02:45:53.230Z,93.5
2017-04-15T02:46:55.390Z,92.8
2017-04-15T02:47:57.641Z,93.4
2017-04-15T02:49:00.264Z,94.4
2017-04-15T02:50:02.419Z,94.4
2017-04-15T02:51:04.229Z,93.7
2017-04-15T02:52:06.042Z,93.5
2017-04-15T02:53:07.862Z,94.4
2017-04-15T02:54:10.019Z,93
2017-04-15T02:55:11.833Z,92.9
2017-04-15T02:56:13.657Z,93.7
2017-04-15T02:57:15.468Z,93.8
2017-04-15T02:58:17.614Z,91.8
2017-04-15T02:59:19.436Z,93.5
2017-04-15T03:00:21.244Z,93
2017-04-15T03:01:23.053Z,92.1
2017-04-15T03:02:24.864Z,91.4
2017-04-15T03:03:27.022Z,92.1
2017-04-15T03:04:29.170Z,90.7
2017-04-15T03:05:30.988Z,91.9
2017-04-15T03:06:33.137Z,91.6
2017-04-15T03:07:34.959Z,90.4
2017-04-15T03:08:36.774Z,91.4
2017-04-15T03:09:38.927Z,92.4
2017-04-15T03:10:41.067Z,93
2017-04-15T03:11:42.895Z,93
2017-04-15T03:12:44.751Z,91.1
2017-04-15T03:13:46.915Z,91.4
2017-04-15T03:14:48.721Z,92.1
2017-04-15T03:15:50.873Z,93.8
2017-04-15T03:16:52.693Z,94.8
2017-04-15T03:17:54.495Z,93.9
2017-04-15T03:18:56.314Z,93.3
2017-04-15T03:19:58.124Z,93.2
2017-04-15T03:20:59.938Z,92.5
2017-04-15T03:22:01.764Z,92.4
2017-04-15T03:23:03.910Z,91.2
2017-04-15T03:24:06.090Z,91.8
2017-04-15T03:25:08.253Z,93.8
2017-04-15T03:26:10.239Z,93.8
2017-04-15T03:27:12.055Z,93.4
2017-04-15T03:28:13.870Z,92.8
2017-04-15T03:29:15.681Z,92.4
2017-04-15T03:30:17.495Z,93
2017-04-15T03:31:19.306Z,93.2
2017-04-15T03:32:21.118Z,92.8
2017-04-15T03:33:22.918Z,92.3
2017-04-15T03:34:24.729Z,93.6
2017-04-15T03:35:26.875Z,93.4
2017-04-15T03:36:29.187Z,92.9
2017-04-15T03:37:31.044Z,92.1
2017-04-15T03:38:33.561Z,91.1
2017-04-15T03:39:35.368Z,92.3
2017-04-15T03:40:37.189Z,92.3
2017-04-15T03:41:38.991Z,93.1
2017-04-15T03:42:40.806Z,92.3
2017-04-15T03:43:42.960Z,93.4
2017-04-15T03:44:45.465Z,92.3
2017-04-15T03:45:47.283Z,92.9
2017-04-15T03:46:49.093Z,93.2
2017-04-15T03:47:50.909Z,93.3
2017-04-15T03:48:53.066Z,92.7
2017-04-15T03:49:54.948Z,91.1
2017-04-15T03:50:56.762Z,90.7
2017-04-15T03:51:58.575Z,92.2
2017-04-15T03:53:00.723Z,92.7
2017-04-15T03:54:02.531Z,92.2
2017-04-15T03:55:04.695Z,91.6
2017-04-15T03:56:06.498Z,91.8
2017-04-15T03:57:08.307Z,93.1
2017-04-15T03:58:10.130Z,92.4
2017-04-15T03:59:12.616Z,91.9
2017-04-15T04:00:14.434Z,92.1
2017-04-15T04:01:16.412Z,91.7
2017-04-15T04:02:18.234Z,92.7
2017-04-15T04:03:20.051Z,91.6
2017-04-15T04:04:21.866Z,90.5
2017-04-15T04:05:23.700Z,91.6
2017-04-15T04:06:25.841Z,91.9
2017-04-15T04:07:27.674Z,92.5
2017-04-15T04:08:29.487Z,92.5
2017-04-15T04:09:31.650Z,91.2
2017-04-15T04:10:33.452Z,91.7
2017-04-15T04:11:35.596Z,92.8
2017-04-15T04:12:37.841Z,92.2
2017-04-15T04:13:40.051Z,91.1
2017-04-15T04:14:42.211Z,90.5
2017-04-15T04:15:44.019Z,91.1
2017-04-15T04:16:46.181Z,92.5
2017-04-15T04:17:48.004Z,92.1
2017-04-15T04:18:49.821Z,92.5
2017-04-15T04:19:51.629Z,91.6
2017-04-15T04:20:53.442Z,91.4
2017-04-15T04:21:55.267Z,89.6
2017-04-15T04:22:57.071Z,90.6
2017-04-15T04:23:59.232Z,91.2
2017-04-15T04:25:01.147Z,90.5
2017-04-15T04:26:02.966Z,89.8
2017-04-15T04:27:04.793Z,89.7
2017-04-15T04:28:06.939Z,91
2017-04-15T04:29:08.769Z,90.2
2017-04-15T04:30:10.577Z,89.8
2017-04-15T04:31:12.418Z,89.8
2017-04-15T04:32:14.281Z,89.6
2017-04-15T04:33:16.453Z,88.7
2017-04-15T04:34:18.287Z,88.7
2017-04-15T04:35:20.107Z,90.1
2017-04-15T04:36:22.039Z,89.9
2017-04-15T04:37:24.096Z,89.7
2017-04-15T04:38:25.935Z,90.2
2017-04-15T04:39:27.791Z,90.3
2017-04-15T04:40:29.611Z,90.5
2017-04-15T04:41:31.597Z,90.1
2017-04-15T04:42:33.426Z,89.6
2017-04-15T04:43:35.254Z,89.7
2017-04-15T04:44:37.120Z,90.8
2017-04-15T04:45:39.277Z,90.3
2017-04-15T04:46:41.230Z,90.1
2017-04-15T04:47:43.037Z,90.2
2017-04-15T04:48:45.359Z,89.8
2017-04-15T04:49:47.370Z,90.5
2017-04-15T04:50:49.306Z,90.2
2017-04-15T04:51:51.445Z,90.2
2017-04-15T04:52:53.257Z,89.9
2017-04-15T04:53:55.178Z,90.8
2017-04-15T04:54:57.007Z,90.2
2017-04-15T04:55:58.889Z,90.1
2017-04-15T04:57:01.039Z,91.8
2017-04-15T04:58:02.857Z,91.8
2017-04-15T04:59:05.025Z,91.2
2017-04-15T05:00:06.847Z,91
2017-04-15T05:01:08.813Z,90.3
2017-04-15T05:02:10.626Z,90.6
2017-04-15T05:03:12.789Z,92.2
2017-04-15T05:04:14.604Z,91.8
2017-04-15T05:05:16.421Z,93
2017-04-15T05:06:18.237Z,92.9
2017-04-15T05:07:20.039Z,92.5
2017-04-15T05:08:22.207Z,93.8
2017-04-15T05:09:24.089Z,93.6
2017-04-15T05:10:25.903Z,94.4
2017-04-15T05:11:27.712Z,94.6
2017-04-15T05:12:29.574Z,94.1
2017-04-15T05:13:31.397Z,94
2017-04-15T05:14:33.211Z,93.7
2017-04-15T05:15:35.015Z,94
2017-04-15T05:16:36.831Z,94.7
2017-04-15T05:17:39.322Z,95.4
2017-04-15T05:18:41.137Z,95.3
2017-04-15T05:19:43.972Z,96.5
2017-04-15T05:20:45.880Z,96.1
2017-04-15T05:21:47.690Z,95.1
2017-04-15T05:22:49.502Z,94.5
2017-04-15T05:23:51.719Z,95.4
2017-04-15T05:24:53.761Z,95.9
2017-04-15T05:25:55.984Z,97.1
2017-04-15T05:26:57.790Z,96.6
2017-04-15T05:27:59.616Z,96
2017-04-15T05:29:01.414Z,96.6
2017-04-15T05:30:03.241Z,95.9
2017-04-15T05:31:05.259Z,95.1
2017-04-15T05:32:07.069Z,95.5
2017-04-15T05:33:08.884Z,96.6
2017-04-15T05:34:10.690Z,96.8
2017-04-15T05:35:12.510Z,97.3
2017-04-15T05:36:14.313Z,96.8
2017-04-15T05:37:16.291Z,97.3
2017-04-15T05:38:18.345Z,97.2
2017-04-15T05:39:20.510Z,98.6
2017-04-15T05:40:22.317Z,97.7
2017-04-15T05:41:24.131Z,97.7
2017-04-15T05:42:25.945Z,97.7
2017-04-15T05:43:27.773Z,96.9
2017-04-15T05:44:29.926Z,98.4
2017-04-15T05:45:31.729Z,98
2017-04-15T05:46:33.553Z,97.9
2017-04-15T05:47:35.363Z,98.2
2017-04-15T05:48:37.175Z,96.9
2017-04-15T05:49:39.085Z,96.7
2017-04-15T05:50:40.908Z,97.2
2017-04-15T05:51:43.053Z,97.6
2017-04-15T05:52:45.202Z,97.7
2017-04-15T05:53:47.117Z,97
2017-04-15T05:54:49.288Z,98.1
2017-04-15T05:55:51.237Z,97.8
2017-04-15T05:56:53.383Z,98.5
2017-04-15T05:57:55.388Z,97.1
2017-04-15T05:58:57.202Z,97.7
2017-04-15T05:59:59.707Z,97
2017-04-15T06:01:01.854Z,97.9
2017-04-15T06:02:03.811Z,98.6
2017-04-15T06:03:05.616Z,97.4
2017-04-15T06:04:07.435Z,96.5
2017-04-15T06:05:09.255Z,95.9
2017-04-15T06:06:11.194Z,97.1
2017-04-15T06:07:13.009Z,97.1
2017-04-15T06:08:14.930Z,97.9
2017-04-15T06:09:16.750Z,98.5
2017-04-15T06:10:18.837Z,97.3
2017-04-15T06:11:20.653Z,96.4
2017-04-15T06:12:22.467Z,96
2017-04-15T06:13:24.278Z,96.7
2017-04-15T06:14:26.118Z,96.6
2017-04-15T06:15:27.926Z,96.6
2017-04-15T06:16:30.077Z,97.2
2017-04-15T06:17:32.044Z,96.8
2017-04-15T06:18:34.079Z,96.5
2017-04-15T06:19:35.884Z,96.3
2017-04-15T06:20:38.044Z,97.8
2017-04-15T06:21:39.861Z,97.8
2017-04-15T06:22:41.675Z,98.1
2017-04-15T06:23:43.822Z,98.2
2017-04-15T06:24:46.330Z,98.6
2017-04-15T06:25:48.144Z,98.1
2017-04-15T06:26:49.942Z,97.4
2017-04-15T06:27:51.759Z,97.3
2017-04-15T06:28:53.773Z,97.7
2017-04-15T06:29:59.356Z,97.2
2017-04-15T06:31:01.417Z,96.5
2017-04-15T06:32:03.234Z,96.9
2017-04-15T06:33:05.425Z,97.1
2017-04-15T06:37:11.901Z,96.5
2017-04-15T06:38:13.709Z,96.5
2017-04-15T06:39:16.258Z,95.8
2017-04-15T06:40:18.158Z,96.1
2017-04-15T06:41:20.302Z,95.9
2017-04-15T06:42:22.456Z,95.7
2017-04-15T06:43:26.734Z,96.5
2017-04-15T06:44:28.887Z,96
2017-04-15T06:45:30.715Z,95.9
2017-04-15T06:46:32.518Z,96.6
2017-04-15T06:47:34.326Z,96.9
2017-04-15T06:48:36.482Z,97.3
2017-04-15T06:49:38.628Z,97.4
2017-04-15T06:50:40.830Z,96
2017-04-15T06:51:42.643Z,95.7
2017-04-15T06:52:45.071Z,95.4
2017-04-15T06:53:47.237Z,95
2017-04-15T06:54:49.140Z,95.6
2017-04-15T06:55:50.955Z,96.1
2017-04-15T06:56:53.000Z,96.9
2017-04-15T06:57:54.819Z,96.7
2017-04-15T06:58:56.952Z,96.6
2017-04-15T06:59:59.107Z,96.8
2017-04-15T07:01:01.137Z,96.4
2017-04-15T07:02:03.043Z,96.5
2017-04-15T07:03:05.176Z,96.4
2017-04-15T07:04:06.990Z,95.9
2017-04-15T07:05:08.850Z,97.4
2017-04-15T07:06:10.666Z,97.4
2017-04-15T07:07:12.476Z,97
2017-04-15T07:08:14.294Z,96.2
2017-04-15T07:09:16.498Z,97
2017-04-15T07:10:18.867Z,97.9
2017-04-15T07:11:20.684Z,97.2
2017-04-15T07:12:22.730Z,97
2017-04-15T07:13:24.539Z,96.8
2017-04-15T07:14:26.355Z,95.8
2017-04-15T07:15:28.515Z,96
2017-04-15T07:16:30.319Z,96.3
2017-04-15T07:17:32.129Z,97.1
2017-04-15T07:18:34.298Z,96.3
2017-04-15T07:19:36.366Z,96.5
2017-04-15T07:20:38.215Z,96.2
2017-04-15T07:21:40.635Z,96.2
2017-04-15T07:22:42.458Z,95.9
2017-04-15T07:23:44.620Z,95.3
2017-04-15T07:24:46.796Z,96.1
2017-04-15T07:25:48.614Z,97.2
2017-04-15T07:26:50.780Z,96.8
2017-04-15T07:27:52.588Z,95.7
2017-04-15T07:28:54.741Z,96.4
2017-04-15T07:29:56.552Z,95.6
2017-04-15T07:30:58.629Z,96
2017-04-15T07:32:00.526Z,96.4
2017-04-15T07:33:02.341Z,96.5
2017-04-15T07:34:04.194Z,96.5
2017-04-15T07:35:05.998Z,96.3
2017-04-15T07:36:08.182Z,96
2017-04-15T07:37:11.559Z,96.3
2017-04-15T07:38:13.707Z,96.6
2017-04-15T07:39:16.144Z,96.1
2017-04-15T07:40:18.251Z,96
2017-04-15T07:41:20.435Z,95.2
2017-04-15T07:42:22.728Z,95.7
2017-04-15T07:43:24.530Z,96.5
2017-04-15T07:44:26.997Z,95.9
2017-04-15T07:45:30.138Z,95.3
2017-04-15T07:46:33.818Z,95.9
2017-04-15T07:47:36.649Z,95.6
2017-04-15T07:48:38.812Z,96
2017-04-15T07:49:41.005Z,96.8
2017-04-15T07:50:43.067Z,96.3
2017-04-15T07:51:44.887Z,95.5
2017-04-15T07:52:47.045Z,95.7
2017-04-15T07:53:49.203Z,95.4
2017-04-15T07:54:51.364Z,94.8
2017-04-15T07:55:53.543Z,94.5
2017-04-15T07:56:55.581Z,95.1
2017-04-15T07:57:58.154Z,94.5
2017-04-15T07:59:01.655Z,95.4
2017-04-15T08:00:03.932Z,95.3
2017-04-15T08:01:05.766Z,95.5
2017-04-15T08:02:07.591Z,95.3
2017-04-15T08:03:09.475Z,93.6
2017-04-15T08:04:11.337Z,94.2
2017-04-15T08:05:13.181Z,94.9
2017-04-15T08:06:15.004Z,95
2017-04-15T08:06:39.246Z,95.3
2017-04-15T08:07:41.715Z,95.7
2017-04-15T08:08:43.882Z,95.4
2017-04-15T08:09:46.033Z,96.6
2017-04-15T08:10:47.883Z,96.1
2017-04-15T08:11:49.695Z,95.9
2017-04-15T08:12:52.014Z,95.5
2017-04-15T08:13:54.236Z,94.9
2017-04-15T08:14:56.050Z,93.7
2017-04-15T08:15:57.866Z,94
2017-04-15T08:16:59.691Z,94.6
2017-04-15T08:18:01.503Z,95
2017-04-15T08:19:04.010Z,94.3
2017-04-15T08:20:05.832Z,95.1
2017-04-15T08:21:07.993Z,94.7
2017-04-15T08:22:09.805Z,95.4
2017-04-15T08:23:11.767Z,94.1
2017-04-15T08:24:14.444Z,93.3
2017-04-15T08:25:16.485Z,94.1
2017-04-15T08:26:18.298Z,93.3
2017-04-15T08:27:20.109Z,93
2017-04-15T08:28:22.055Z,94.4
2017-04-15T08:29:23.858Z,94.6
2017-04-15T08:30:25.679Z,94.6
2017-04-15T08:31:27.493Z,94.1
2017-04-15T08:32:29.981Z,94.4
2017-04-15T08:33:31.795Z,94.4
2017-04-15T08:34:33.664Z,93.7
2017-04-15T08:35:35.934Z,93.5
2017-04-15T08:36:38.094Z,93.8
2017-04-15T08:37:40.549Z,93.1
2017-04-15T08:38:42.362Z,93.2
2017-04-15T08:39:44.172Z,92.7
2017-04-15T08:40:45.995Z,93
2017-04-15T08:41:48.145Z,93.8
2017-04-15T08:42:49.957Z,93.8
2017-04-15T08:43:51.771Z,93.7
2017-04-15T08:44:53.582Z,93.7
2017-04-15T08:45:55.411Z,94.4
2017-04-15T08:46:57.568Z,93.3
2017-04-15T08:47:59.731Z,93.7
2017-04-15T08:49:01.545Z,93.4
2017-04-15T08:50:03.531Z,93.3
2017-04-15T08:51:05.694Z,93
2017-04-15T08:52:07.510Z,93.2
2017-04-15T08:53:09.327Z,93.8
2017-04-15T08:54:11.160Z,93.8
2017-04-15T08:55:13.322Z,93.9
2017-04-15T08:56:15.491Z,93.6
2017-04-15T08:57:17.649Z,92.9
2017-04-15T08:58:19.805Z,92.9
2017-04-15T08:59:21.627Z,93.8
2017-04-15T09:00:23.445Z,93
2017-04-15T09:01:25.277Z,92.6
2017-04-15T09:02:27.087Z,92.7
2017-04-15T09:03:28.905Z,92.7
2017-04-15T09:04:30.714Z,91.7
2017-04-15T09:05:32.547Z,92.7
2017-04-15T09:06:34.361Z,93.9
2017-04-15T09:07:36.288Z,93.3
2017-04-15T09:08:38.229Z,94.5
2017-04-15T09:09:40.518Z,94.1
2017-04-15T09:10:42.691Z,94.8
2017-04-15T09:11:44.518Z,95.2
2017-04-15T09:12:46.330Z,94.3
2017-04-15T09:13:48.497Z,93.8
2017-04-15T09:14:50.663Z,92.1
2017-04-15T09:15:52.470Z,93.1
2017-04-15T09:16:54.281Z,93.7
2017-04-15T09:17:56.434Z,93
2017-04-15T09:18:58.254Z,92.3
2017-04-15T09:20:00.279Z,91.7
2017-04-15T09:21:02.290Z,91.9
2017-04-15T09:22:04.107Z,91.8
2017-04-15T09:23:06.520Z,92.1
2017-04-15T09:24:08.332Z,91.9
2017-04-15T09:25:10.144Z,91.8
2017-04-15T09:26:11.955Z,93.1
2017-04-15T09:27:13.793Z,93.5
2017-04-15T09:28:15.606Z,92.3
2017-04-15T17:16:26.543Z,70.6
2017-04-15T17:17:29.941Z,71
2017-04-15T17:18:32.434Z,71.1
2017-04-15T17:19:34.592Z,69.6
2017-04-15T17:20:36.803Z,69.4
2017-04-15T17:21:39.029Z,68.3
2017-04-15T17:22:40.847Z,68.3
2017-04-15T17:23:42.651Z,68.3
2017-04-15T17:24:44.709Z,68.6
2017-04-15T17:25:46.528Z,67.9
2017-04-15T17:26:48.344Z,67.8
2017-04-15T17:27:50.167Z,68
2017-04-15T17:28:52.173Z,68.5
2017-04-15T17:29:54.054Z,68.9
2017-04-15T17:30:55.864Z,68.8
2017-04-15T17:31:57.678Z,69.2
2017-04-15T17:32:59.833Z,69.3
2017-04-15T17:34:01.662Z,69.2
2017-04-15T17:35:03.471Z,69.3
2017-04-15T17:36:05.476Z,69.5
2017-04-15T17:37:07.292Z,69.6
2017-04-15T17:38:09.110Z,70
2017-04-15T17:39:11.161Z,70.3
2017-04-15T17:40:13.233Z,70.5
2017-04-15T17:41:15.046Z,70.7
2017-04-15T17:42:16.874Z,69.6
2017-04-15T17:43:18.700Z,71.1
2017-04-15T17:44:20.529Z,69.6
2017-04-15T17:45:22.788Z,70.6
2017-04-15T17:46:24.663Z,69.7
2017-04-15T17:47:26.484Z,70.9
2017-04-15T17:48:28.384Z,68.9
2017-04-15T17:49:30.255Z,68.7
2017-04-15T17:50:32.078Z,68.4
2017-04-15T17:51:33.985Z,68.4
2017-04-15T17:52:36.229Z,68.3
2017-04-15T17:53:38.045Z,67.7
2017-04-15T17:54:39.859Z,67.3
2017-04-15T17:55:41.690Z,67.7
2017-04-15T17:56:43.510Z,67.6
2017-04-15T17:57:45.320Z,67.2
2017-04-15T17:58:47.134Z,68.2
2017-04-15T17:59:49.290Z,68.4
2017-04-15T18:00:51.114Z,67.9
2017-04-15T18:01:53.425Z,68.9
2017-04-15T18:02:55.248Z,68.2
2017-04-15T18:03:57.101Z,67.5
2017-04-15T18:04:58.925Z,68.1
2017-04-15T18:06:00.845Z,67.7
2017-04-15T18:07:02.662Z,68.1
2017-04-15T18:08:04.817Z,68.1
2017-04-15T18:09:06.986Z,68.5
2017-04-15T18:10:08.805Z,68.5
2017-04-15T18:11:10.639Z,68.6
2017-04-15T18:12:31.357Z,69
2017-04-15T18:13:33.190Z,69.6
2017-04-15T18:14:35.013Z,70.1
2017-04-15T18:15:36.842Z,69.9
2017-04-15T18:16:38.981Z,69.9
2017-04-15T18:17:41.159Z,70
2017-04-15T18:18:42.967Z,70.3
2017-04-15T18:19:45.470Z,70.7
2017-04-15T18:20:47.297Z,70.5
2017-04-15T18:21:49.103Z,70.6
2017-04-15T18:22:51.249Z,70.4
2017-04-15T18:23:53.141Z,71.1
2017-04-15T18:24:55.018Z,71.5
2017-04-15T18:25:56.826Z,70.7
2017-04-15T18:26:58.712Z,70.9
2017-04-15T18:28:00.885Z,71.1
2017-04-15T18:29:03.049Z,71.2
2017-04-15T18:30:04.861Z,71.4
2017-04-15T18:31:07.017Z,72.5
2017-04-15T18:32:08.841Z,71.7
2017-04-15T18:33:10.668Z,71.6
2017-04-15T18:34:12.790Z,71.5
2017-04-15T18:35:14.602Z,71
2017-04-15T18:36:16.422Z,72.5
2017-04-15T18:37:18.270Z,71.5
2017-04-15T18:38:20.495Z,71.4
2017-04-15T18:39:22.388Z,71.1
2017-04-15T18:40:24.195Z,71
2017-04-15T18:41:26.007Z,71
2017-04-15T18:42:27.826Z,71.1
2017-04-15T18:43:29.641Z,70.9
2017-04-15T18:44:31.791Z,70.7
2017-04-15T18:45:33.601Z,70.9
2017-04-15T18:46:35.417Z,71.2
2017-04-15T18:47:37.232Z,71.6
2017-04-15T18:48:39.063Z,71.1
2017-04-15T18:49:41.186Z,71.3
2017-04-15T18:50:43.001Z,71.3
2017-04-15T18:51:44.818Z,71.4
2017-04-15T18:52:47.049Z,72.1
2017-04-15T18:53:48.875Z,72.2
2017-04-15T18:54:50.691Z,72.5
2017-04-15T18:55:52.502Z,72.2
2017-04-15T18:56:54.516Z,72.2
2017-04-15T18:57:56.328Z,72
2017-04-15T18:58:58.137Z,72.6
2017-04-15T18:59:59.966Z,72.6
2017-04-15T19:01:01.773Z,73
2017-04-15T19:02:03.608Z,72.5
2017-04-15T19:03:05.428Z,73
2017-04-15T19:04:07.269Z,73.8
2017-04-15T19:05:09.075Z,73.9
2017-04-15T19:06:10.900Z,73.8
2017-04-15T19:07:12.703Z,73.8
2017-04-15T19:08:14.747Z,73.7
2017-04-15T19:09:16.596Z,74.1
2017-04-15T19:10:18.423Z,74.4
2017-04-15T19:11:20.369Z,74.6
2017-04-15T19:12:22.182Z,74.1
2017-04-15T19:13:24.336Z,74.4
2017-04-15T19:14:26.153Z,74.9
2017-04-15T19:15:27.976Z,74.6
2017-04-15T19:16:29.800Z,74.5
2017-04-15T19:17:31.614Z,74.5
2017-04-15T19:18:33.797Z,74.4
2017-04-15T19:19:35.951Z,74.4
2017-04-15T19:20:37.776Z,74.4
2017-04-15T19:21:39.590Z,74.6
2017-04-15T19:22:41.731Z,74.6
2017-04-15T19:24:21.584Z,75.3
2017-04-15T19:25:32.348Z,75.5
2017-04-15T19:26:34.161Z,74.9
2017-04-15T19:27:35.963Z,75.2
2017-04-15T19:28:37.811Z,74.9
2017-04-15T19:29:40.087Z,74.4
2017-04-15T19:30:41.965Z,74.6
2017-04-15T19:31:43.779Z,74.5
2017-04-15T19:32:45.606Z,76.9
2017-04-15T19:33:47.579Z,80.9
2017-04-15T19:34:49.661Z,83.9
2017-04-15T19:35:51.501Z,85.2
2017-04-15T19:36:53.320Z,87.5
2017-04-15T19:37:55.543Z,88.9
2017-04-15T19:38:57.681Z,90.5
2017-04-15T19:39:59.509Z,91.3
2017-04-15T19:41:01.496Z,91
2017-04-15T19:42:03.373Z,92.3
2017-04-15T19:43:05.185Z,91.5
2017-04-15T19:44:07.007Z,91.7
2017-04-15T19:45:09.175Z,91.8
2017-04-15T19:46:11.358Z,92.6
2017-04-15T19:47:13.566Z,92.6
2017-04-15T19:48:15.722Z,93.1
2017-04-15T19:49:17.534Z,93.4
2017-04-15T19:50:19.449Z,93.1
2017-04-15T19:51:21.648Z,93.3
2017-04-15T19:52:23.737Z,93.7
2017-04-15T19:53:25.552Z,94.1
2017-04-15T19:54:27.376Z,93.4
2017-04-15T19:55:29.210Z,93
2017-04-15T19:56:31.524Z,93.2
2017-04-15T19:57:33.360Z,93.2
2017-04-15T19:58:35.216Z,93.4
2017-04-15T19:59:37.069Z,93.7
2017-04-15T20:00:39.025Z,93.3
2017-04-15T20:01:40.938Z,93.5
2017-04-15T20:02:42.754Z,93.2
2017-04-15T20:03:44.592Z,93
2017-04-15T20:04:46.421Z,92.6
2017-04-15T20:05:48.232Z,92.9
2017-04-15T20:06:50.277Z,92.8
2017-04-15T20:07:52.095Z,92.9
2017-04-15T20:08:54.230Z,92.8
2017-04-15T20:09:56.071Z,92.8
2017-04-15T20:10:57.892Z,92.1
2017-04-15T20:11:59.717Z,92.2
2017-04-15T20:13:01.522Z,92.2
2017-04-15T20:14:03.354Z,91.9
2017-04-15T20:15:05.171Z,92.5
2017-04-15T20:16:07.335Z,91.8
2017-04-15T20:17:09.160Z,91.7
2017-04-15T20:18:11.264Z,91.6
2017-04-15T20:19:13.091Z,91.5
2017-04-15T20:20:15.229Z,91.5
2017-04-15T20:21:17.123Z,91.6
2017-04-15T20:22:18.947Z,91.5
2017-04-15T20:23:21.270Z,91.6
2017-04-15T20:24:23.416Z,91.6
2017-04-15T20:25:25.572Z,91.1
2017-04-15T20:26:27.452Z,91.4
2017-04-15T20:27:29.509Z,91.8
2017-04-15T20:28:31.341Z,91.6
2017-04-15T20:29:33.425Z,91.4
2017-04-15T20:30:35.597Z,91.4
2017-04-15T20:31:37.439Z,91.6
2017-04-15T20:32:39.274Z,91.8
2017-04-15T20:33:41.420Z,91.2
2017-04-15T20:34:43.251Z,90.9
2017-04-15T20:35:45.087Z,91.9
2017-04-15T20:36:46.921Z,91.4
2017-04-15T20:37:49.090Z,91.1
2017-04-15T20:38:51.261Z,91.5
2017-04-15T20:39:53.405Z,91.1
2017-04-15T20:40:55.219Z,91.5
2017-04-15T20:41:57.023Z,91.5
2017-04-15T20:42:59.503Z,91.8
2017-04-15T20:44:01.302Z,91.3
2017-04-15T20:45:03.654Z,91.3
2017-04-15T20:46:05.470Z,91.7
2017-04-15T20:47:07.271Z,91.1
2017-04-15T20:48:09.085Z,90.9
2017-04-15T20:49:10.890Z,90.9
2017-04-15T20:50:12.883Z,90.7
2017-04-15T20:51:15.036Z,90.9
2017-04-15T20:52:17.177Z,90.6
2017-04-15T20:53:19.011Z,90.7
2017-04-15T20:54:20.816Z,90.1
2017-04-15T20:55:22.904Z,90.2
2017-04-15T20:56:25.160Z,90.3
2017-04-15T20:57:27.182Z,90.7
2017-04-15T20:58:29.335Z,90.6
2017-04-15T20:59:31.146Z,90.9
2017-04-15T21:00:32.956Z,90.4
2017-04-15T21:01:34.757Z,90.5
2017-04-15T21:02:36.940Z,90.2
2017-04-15T21:03:39.431Z,90.2
2017-04-15T21:04:41.583Z,90.8
2017-04-15T21:05:43.400Z,90.9
2017-04-15T21:06:45.193Z,90.7
2017-04-15T21:07:47.011Z,90.4
2017-04-15T21:08:48.956Z,90
2017-04-15T21:09:51.163Z,90.3
2017-04-15T21:10:52.975Z,90.4
2017-04-15T21:11:54.794Z,90.3
2017-04-15T21:12:56.967Z,89.9
2017-04-15T21:13:58.796Z,90
2017-04-15T21:15:00.759Z,90
2017-04-15T21:16:02.980Z,90.1
2017-04-15T21:17:05.096Z,90.2
2017-04-15T21:18:06.920Z,89.9
2017-04-15T21:19:09.067Z,90
2017-04-15T21:20:11.219Z,90.2
2017-04-15T21:21:13.039Z,90.5
2017-04-15T21:22:14.858Z,90.4
2017-04-15T21:23:16.664Z,90.3
2017-04-15T21:24:19.147Z,90.5
2017-04-15T21:25:20.951Z,90.9
2017-04-15T21:26:22.793Z,91.2
2017-04-15T21:27:24.658Z,91.2
2017-04-15T21:28:26.844Z,91.1
2017-04-15T21:29:29.475Z,91.2
2017-04-15T21:30:31.379Z,90.7
2017-04-15T21:31:33.192Z,91
2017-04-15T21:32:35.172Z,91.1
2017-04-15T21:33:37.318Z,91.1
2017-04-15T21:34:39.157Z,91.4
2017-04-15T21:35:41.558Z,91.6
2017-04-15T21:36:43.375Z,91.7
2017-04-15T21:37:45.183Z,91.6
2017-04-15T21:38:47.118Z,91.6
2017-04-15T21:39:48.933Z,91.7
2017-04-15T21:40:50.893Z,91.8